createdAt,value
2019-03-22T00:01:05.099Z,43.80
2019-03-22T00:03:31.019Z,42.27
2019-03-22T00:05:59.431Z,43.70
2019-03-22T00:08:31.335Z,44.80
2019-03-22T00:10:59.588Z,44.40
2019-03-22T00:13:27.846Z,45.30
2019-03-22T00:15:58.547Z,45.10
2019-03-22T00:18:26.984Z,43.63
2019-03-22T00:20:55.234Z,41.30
2019-03-22T00:23:23.616Z,44.47
2019-03-22T00:25:51.939Z,43.77
2019-03-22T00:28:22.656Z,44.87
2019-03-22T00:30:51.037Z,40.93
2019-03-22T00:33:19.476Z,47.97
2019-03-22T00:35:47.799Z,45.53
2019-03-22T00:38:16.233Z,45.20
2019-03-22T00:40:44.624Z,44.47
2019-03-22T00:43:13.109Z,46.10
2019-03-22T00:45:41.560Z,45.10
2019-03-22T00:48:09.886Z,44.13
2019-03-22T00:50:40.017Z,45.67
2019-03-22T00:53:08.455Z,46.00
2019-03-22T00:55:39.120Z,46.43
2019-03-22T00:58:07.583Z,47.07
2019-03-22T01:00:36.025Z,46.00
2019-03-22T01:03:04.550Z,47.00
2019-03-22T01:05:34.232Z,49.07
2019-03-22T01:08:06.502Z,45.80
2019-03-22T01:10:35.127Z,47.47
2019-03-22T01:13:05.243Z,48.17
2019-03-22T01:15:33.621Z,46.80
2019-03-22T01:18:03.785Z,49.87
2019-03-22T01:20:32.066Z,50.33
2019-03-22T01:23:01.557Z,50.13
2019-03-22T01:25:29.923Z,49.77
2019-03-22T01:27:58.187Z,49.67
2019-03-22T01:30:27.617Z,45.50
2019-03-22T01:32:56.030Z,48.97
2019-03-22T01:35:24.295Z,50.43
2019-03-22T01:37:52.652Z,52.40
2019-03-22T01:40:21.112Z,49.90
2019-03-22T01:42:49.487Z,47.50
2019-03-22T01:45:18.541Z,51.83
2019-03-22T01:47:47.100Z,50.30
2019-03-22T01:50:15.477Z,48.40
2019-03-22T01:52:43.774Z,50.20
2019-03-22T01:55:15.078Z,49.17
2019-03-22T01:57:52.552Z,49.17
2019-03-22T02:00:14.206Z,51.93
2019-03-22T02:02:42.698Z,50.90
2019-03-22T02:05:12.185Z,52.47
2019-03-22T02:07:40.601Z,52.30
2019-03-22T02:10:09.214Z,50.70
2019-03-22T02:12:38.661Z,53.70
2019-03-22T02:15:10.159Z,52.63
2019-03-22T02:17:38.455Z,51.97
2019-03-22T02:20:07.555Z,55.30
2019-03-22T02:22:35.925Z,52.13
2019-03-22T02:25:04.784Z,53.70
2019-03-22T02:27:33.388Z,55.70
2019-03-22T02:30:02.035Z,53.00
2019-03-22T02:32:30.320Z,52.43
2019-03-22T02:34:58.527Z,55.20
2019-03-22T02:37:29.432Z,57.27
2019-03-22T02:39:58.209Z,55.93
2019-03-22T02:42:27.595Z,56.60
2019-03-22T02:44:55.909Z,56.57
2019-03-22T02:47:24.332Z,59.73
2019-03-22T02:49:54.488Z,60.37
2019-03-22T02:52:22.845Z,59.97
2019-03-22T02:54:53.947Z,64.07
2019-03-22T02:57:24.708Z,61.47
2019-03-22T02:59:53.123Z,63.87
2019-03-22T03:02:21.428Z,67.07
2019-03-22T03:04:51.940Z,66.13
2019-03-22T03:07:22.429Z,69.03
2019-03-22T03:09:55.037Z,69.70
2019-03-22T03:12:23.390Z,69.10
2019-03-22T03:14:52.512Z,70.70
2019-03-22T03:17:21.061Z,64.93
2019-03-22T03:19:49.437Z,69.33
2019-03-22T03:22:17.729Z,67.83
2019-03-22T03:24:46.075Z,63.03
2019-03-22T03:27:14.580Z,61.43
2019-03-22T03:29:48.623Z,62.83
2019-03-22T03:32:16.873Z,63.27
2019-03-22T03:34:45.138Z,64.77
2019-03-22T03:37:13.426Z,63.43
2019-03-22T03:39:44.153Z,61.07
2019-03-22T03:42:12.368Z,61.90
2019-03-22T03:44:41.682Z,64.50
2019-03-22T03:47:10.801Z,61.47
2019-03-22T03:49:40.007Z,66.47
2019-03-22T03:52:08.298Z,65.73
2019-03-22T03:54:36.571Z,60.83
2019-03-22T03:57:05.069Z,60.00
2019-03-22T03:59:33.426Z,62.57
2019-03-22T04:02:01.662Z,64.37
2019-03-22T04:04:29.930Z,60.80
2019-03-22T04:07:01.190Z,67.03
2019-03-22T04:09:29.513Z,66.20
2019-03-22T04:11:57.752Z,66.53
2019-03-22T04:14:26.087Z,66.07
2019-03-22T04:16:54.614Z,65.17
2019-03-22T04:19:23.858Z,67.47
2019-03-22T04:21:52.231Z,68.07
2019-03-22T04:24:20.848Z,71.33
2019-03-22T04:26:49.192Z,67.53
2019-03-22T04:29:17.585Z,68.07
2019-03-22T04:31:45.901Z,69.03
2019-03-22T04:34:15.743Z,64.20
2019-03-22T04:36:44.238Z,63.70
2019-03-22T04:39:12.564Z,64.60
2019-03-22T04:41:40.786Z,66.10
2019-03-22T04:44:09.314Z,62.10
2019-03-22T04:46:40.919Z,59.43
2019-03-22T04:49:10.611Z,68.03
2019-03-22T04:51:39.611Z,64.17
2019-03-22T04:54:08.885Z,64.43
2019-03-22T04:56:38.355Z,64.00
2019-03-22T04:59:18.931Z,61.13
2019-03-22T05:01:44.184Z,63.97
2019-03-22T05:04:13.859Z,58.40
2019-03-22T05:06:42.958Z,66.57
2019-03-22T05:09:13.991Z,64.47
2019-03-22T05:11:43.568Z,63.20
2019-03-22T05:14:14.198Z,72.60
2019-03-22T05:16:45.656Z,64.13
2019-03-22T05:19:16.392Z,68.20
2019-03-22T05:21:45.645Z,66.27
2019-03-22T05:24:15.123Z,70.80
2019-03-22T05:26:44.092Z,73.67
2019-03-22T05:29:13.737Z,76.60
2019-03-22T05:31:59.598Z,74.20
2019-03-22T05:34:28.062Z,73.27
2019-03-22T05:36:59.095Z,74.00
2019-03-22T05:39:27.448Z,72.87
2019-03-22T05:41:55.791Z,71.63
2019-03-22T05:44:25.100Z,72.70
2019-03-22T05:46:54.653Z,69.73
2019-03-22T05:49:22.945Z,69.23
2019-03-22T05:51:51.458Z,65.77
2019-03-22T05:54:19.756Z,76.00
2019-03-22T05:56:48.656Z,74.43
2019-03-22T05:59:21.337Z,68.83
2019-03-22T06:01:49.912Z,64.57
2019-03-22T06:04:18.479Z,62.87
2019-03-22T06:06:48.777Z,66.17
2019-03-22T06:09:17.653Z,66.43
2019-03-22T06:11:59.073Z,67.70
2019-03-22T06:14:27.796Z,60.40
2019-03-22T06:17:01.613Z,62.50
2019-03-22T06:19:30.366Z,58.40
2019-03-22T06:21:59.397Z,58.13
2019-03-22T06:24:28.263Z,59.50
2019-03-22T06:26:56.717Z,61.23
2019-03-22T06:29:25.123Z,58.50
2019-03-22T06:31:53.590Z,56.93
2019-03-22T06:34:22.121Z,62.93
2019-03-22T06:36:52.030Z,59.63
2019-03-22T06:39:20.933Z,57.43
2019-03-22T06:41:49.500Z,60.50
2019-03-22T06:44:18.031Z,62.53
2019-03-22T06:46:46.542Z,58.70
2019-03-22T06:49:16.694Z,54.53
2019-03-22T06:51:49.451Z,52.60
2019-03-22T06:54:30.963Z,53.33
2019-03-22T06:56:56.744Z,56.27
2019-03-22T06:59:25.506Z,50.10
2019-03-22T07:01:55.732Z,50.77
2019-03-22T07:04:24.552Z,46.97
2019-03-22T07:06:53.768Z,48.93
2019-03-22T07:09:24.021Z,48.43
2019-03-22T07:14:48.778Z,46.20
2019-03-22T07:17:17.400Z,45.80
2019-03-22T07:19:56.052Z,46.87
2019-03-22T07:22:29.377Z,43.10
2019-03-22T07:24:57.625Z,43.27
2019-03-22T07:27:30.438Z,42.30
2019-03-22T07:30:17.694Z,39.30
2019-03-22T07:32:41.388Z,38.80
2019-03-22T07:35:10.286Z,37.83
2019-03-22T07:37:41.493Z,43.53
2019-03-22T07:40:11.802Z,40.13
2019-03-22T07:42:40.874Z,37.87
2019-03-22T07:45:10.014Z,38.97
2019-03-22T07:47:40.141Z,36.47
2019-03-22T07:50:11.170Z,33.53
2019-03-22T07:52:39.901Z,33.03
2019-03-22T07:55:12.029Z,36.17
2019-03-22T07:57:44.347Z,35.87
2019-03-22T08:00:13.201Z,36.87
2019-03-22T08:02:41.843Z,32.00
2019-03-22T08:05:11.036Z,31.00
2019-03-22T08:07:39.813Z,33.40
2019-03-22T08:10:16.404Z,30.87
2019-03-22T08:12:45.329Z,29.97
2019-03-22T08:15:25.508Z,27.87
2019-03-22T08:17:54.008Z,30.53
2019-03-22T08:20:24.425Z,25.53
2019-03-22T08:22:53.716Z,24.17
2019-03-22T08:25:23.035Z,24.23
2019-03-22T08:27:54.295Z,24.90
2019-03-22T08:30:23.613Z,23.00
2019-03-22T08:32:53.546Z,23.73
2019-03-22T08:35:23.544Z,24.63
2019-03-22T08:37:53.110Z,21.53
2019-03-22T08:40:26.863Z,23.43
2019-03-22T08:42:56.161Z,22.00
2019-03-22T08:45:24.670Z,22.00
2019-03-22T08:47:53.293Z,20.47
2019-03-22T08:50:21.513Z,20.23
2019-03-22T08:52:49.871Z,20.63
2019-03-22T08:55:18.393Z,20.07
2019-03-22T08:57:46.758Z,21.43
2019-03-22T09:00:15.854Z,17.23
2019-03-22T09:02:44.167Z,19.30
2019-03-22T09:05:12.766Z,17.70
2019-03-22T09:07:41.068Z,15.03
2019-03-22T09:10:10.083Z,16.00
2019-03-22T09:12:38.287Z,17.03
2019-03-22T09:15:08.379Z,16.37
2019-03-22T09:17:36.706Z,15.77
2019-03-22T09:20:08.005Z,14.53
2019-03-22T09:22:36.274Z,15.47
2019-03-22T09:25:04.946Z,10.17
2019-03-22T09:27:36.273Z,12.00
2019-03-22T09:30:04.032Z,10.73
2019-03-22T09:32:32.175Z,11.33
2019-03-22T09:35:00.456Z,9.60
2019-03-22T09:37:28.572Z,9.83
2019-03-22T09:39:56.742Z,10.30
2019-03-22T09:42:24.974Z,12.13
2019-03-22T09:44:53.157Z,9.73
2019-03-22T09:47:21.349Z,9.73
2019-03-22T09:49:51.244Z,11.53
2019-03-22T09:52:19.552Z,10.67
2019-03-22T09:54:47.659Z,11.23
2019-03-22T09:57:15.796Z,12.37
2019-03-22T09:59:44.722Z,11.13
2019-03-22T10:02:12.850Z,10.80
2019-03-22T10:04:41.120Z,11.40
2019-03-22T10:07:09.337Z,11.43
2019-03-22T10:09:37.791Z,8.47
2019-03-22T10:12:06.015Z,9.37
2019-03-22T10:14:34.134Z,7.93
2019-03-22T10:17:02.377Z,7.73
2019-03-22T10:19:30.609Z,5.50
2019-03-22T10:21:59.242Z,5.27
2019-03-22T10:24:27.515Z,5.03
2019-03-22T10:26:55.766Z,6.60
2019-03-22T10:29:23.974Z,8.67
2019-03-22T10:31:52.157Z,6.07
2019-03-22T10:34:20.431Z,8.23
2019-03-22T10:36:48.608Z,8.70
2019-03-22T10:39:16.938Z,7.00
2019-03-22T10:41:45.183Z,7.70
2019-03-22T10:44:13.394Z,5.90
2019-03-22T10:46:41.570Z,7.67
2019-03-22T10:49:09.659Z,7.10
2019-03-22T10:51:37.921Z,5.17
2019-03-22T10:54:12.799Z,8.63
2019-03-22T10:56:38.399Z,6.60
2019-03-22T10:59:06.717Z,5.67
2019-03-22T11:01:48.279Z,7.13
2019-03-22T11:06:33.220Z,5.73
2019-03-22T11:09:01.504Z,5.30
2019-03-22T11:11:29.669Z,5.30
2019-03-22T11:13:57.964Z,5.13
2019-03-22T11:16:26.128Z,6.63
2019-03-22T11:18:54.405Z,4.63
2019-03-22T11:21:22.628Z,4.60
2019-03-22T11:23:50.983Z,6.27
2019-03-22T11:26:19.299Z,4.30
2019-03-22T11:28:48.369Z,6.10
2019-03-22T11:31:16.598Z,4.87
2019-03-22T11:33:44.760Z,4.53
2019-03-22T11:36:12.832Z,5.27
2019-03-22T11:38:40.954Z,4.47
2019-03-22T11:41:10.242Z,5.63
2019-03-22T11:43:38.536Z,4.67
2019-03-22T11:46:08.219Z,4.87
2019-03-22T11:48:36.438Z,2.90
2019-03-22T11:51:05.130Z,3.00
2019-03-22T11:53:33.378Z,4.23
2019-03-22T11:56:01.717Z,4.97
2019-03-22T11:58:30.146Z,3.87
2019-03-22T12:00:58.787Z,6.23
2019-03-22T12:03:27.845Z,3.37
2019-03-22T12:05:56.094Z,5.80
2019-03-22T12:08:25.548Z,4.33
2019-03-22T12:10:53.949Z,5.50
2019-03-22T12:13:22.174Z,5.93
2019-03-22T12:15:52.524Z,4.80
2019-03-22T12:18:20.909Z,4.73
2019-03-22T12:20:49.298Z,5.80
2019-03-22T12:23:19.796Z,5.53
2019-03-22T12:25:48.214Z,5.70
2019-03-22T12:28:16.570Z,6.63
2019-03-22T12:30:47.466Z,5.93
2019-03-22T12:33:15.782Z,6.77
2019-03-22T12:35:44.062Z,4.60
2019-03-22T12:38:12.442Z,4.73
2019-03-22T12:40:40.740Z,6.30
2019-03-22T12:43:09.023Z,6.37
2019-03-22T12:45:37.480Z,9.50
2019-03-22T12:48:05.626Z,9.63
2019-03-22T12:50:34.085Z,7.07
2019-03-22T12:53:04.635Z,5.20
2019-03-22T12:55:33.113Z,5.10
2019-03-22T12:58:01.881Z,4.07
2019-03-22T13:00:30.941Z,5.27
2019-03-22T13:02:59.823Z,6.83
2019-03-22T13:05:30.159Z,9.50
2019-03-22T13:08:00.595Z,7.37
2019-03-22T13:10:31.254Z,6.80
2019-03-22T13:12:59.723Z,6.23
2019-03-22T13:15:28.392Z,7.23
2019-03-22T13:17:57.774Z,8.10
2019-03-22T13:20:26.354Z,6.77
2019-03-22T13:22:54.857Z,8.17
2019-03-22T13:25:26.324Z,6.53
2019-03-22T13:27:55.507Z,8.67
2019-03-22T13:30:41.602Z,8.17
2019-03-22T13:33:10.477Z,5.90
2019-03-22T13:35:47.474Z,7.77
2019-03-22T13:38:16.360Z,4.70
2019-03-22T13:40:45.342Z,6.30
2019-03-22T13:43:14.632Z,4.30
2019-03-22T13:45:43.752Z,10.60
2019-03-22T13:48:17.455Z,6.50
2019-03-22T13:50:46.138Z,6.33
2019-03-22T13:53:15.268Z,7.27
2019-03-22T13:55:54.456Z,4.93
2019-03-22T13:58:20.512Z,4.87
2019-03-22T14:00:49.110Z,5.53
2019-03-22T14:03:18.324Z,4.87
2019-03-22T14:05:47.900Z,3.67
2019-03-22T14:08:18.342Z,4.90
2019-03-22T14:10:47.753Z,6.07
2019-03-22T14:13:16.815Z,5.67
2019-03-22T14:15:45.917Z,6.67
2019-03-22T14:18:19.314Z,6.47
2019-03-22T14:20:50.109Z,7.10
2019-03-22T14:23:18.975Z,5.70
2019-03-22T14:25:49.537Z,9.17
2019-03-22T14:28:18.977Z,8.73
2019-03-22T14:30:48.037Z,5.93
2019-03-22T14:33:16.867Z,5.90
2019-03-22T14:35:47.736Z,6.33
2019-03-22T14:38:18.725Z,5.43
2019-03-22T14:40:47.113Z,4.53
2019-03-22T14:43:18.335Z,6.13
2019-03-22T14:45:47.159Z,4.97
2019-03-22T14:48:15.702Z,4.67
2019-03-22T14:50:44.222Z,6.13
2019-03-22T14:53:12.678Z,7.47
2019-03-22T14:55:42.752Z,6.03
2019-03-22T14:58:11.161Z,6.10
2019-03-22T15:00:45.403Z,12.03
2019-03-22T15:05:45.425Z,7.03
2019-03-22T15:08:20.831Z,6.13
2019-03-22T15:10:46.421Z,6.00
2019-03-22T15:13:14.652Z,6.90
2019-03-22T15:16:05.352Z,5.30
2019-03-22T15:19:01.514Z,4.93
2019-03-22T15:21:58.448Z,4.63
2019-03-22T15:24:45.493Z,4.63
2019-03-22T15:27:39.131Z,7.37
2019-03-22T15:30:42.010Z,6.70
2019-03-22T15:33:38.770Z,5.87
2019-03-22T15:36:29.280Z,6.50
2019-03-22T15:42:02.463Z,6.17
2019-03-22T15:44:30.860Z,4.53
2019-03-22T15:47:01.460Z,5.53
2019-03-22T15:49:29.796Z,7.00
2019-03-22T15:51:58.177Z,4.63
2019-03-22T15:54:26.727Z,6.13
2019-03-22T15:56:55.130Z,5.43
2019-03-22T15:59:23.427Z,5.70
2019-03-22T16:01:51.535Z,5.53
2019-03-22T16:04:20.173Z,4.77
2019-03-22T16:06:48.400Z,5.40
2019-03-22T16:09:16.980Z,6.07
2019-03-22T16:11:45.269Z,4.50
2019-03-22T16:14:13.638Z,4.87
2019-03-22T16:16:41.998Z,5.57
2019-03-22T16:19:10.357Z,4.53
2019-03-22T16:21:38.934Z,6.87
2019-03-22T16:24:07.096Z,18.73
2019-03-22T16:26:35.345Z,9.13
2019-03-22T16:29:03.601Z,7.40
2019-03-22T16:31:32.010Z,7.33
2019-03-22T16:34:00.305Z,5.80
2019-03-22T16:36:28.650Z,6.33
2019-03-22T16:38:56.989Z,8.07
2019-03-22T16:41:25.181Z,8.43
2019-03-22T16:43:53.449Z,9.10
2019-03-22T16:46:22.718Z,8.57
2019-03-22T16:48:54.886Z,5.27
2019-03-22T16:51:23.157Z,6.23
2019-03-22T16:53:53.782Z,5.40
2019-03-22T16:56:22.076Z,13.40
2019-03-22T16:58:50.415Z,6.67
2019-03-22T17:01:18.792Z,9.87
2019-03-22T17:03:47.166Z,6.10
2019-03-22T17:06:15.386Z,5.00
2019-03-22T17:08:46.218Z,5.73
2019-03-22T17:11:15.199Z,6.57
2019-03-22T17:13:43.644Z,7.60
2019-03-22T17:16:12.042Z,5.97
2019-03-22T17:18:40.995Z,6.60
2019-03-22T17:21:09.394Z,5.77
2019-03-22T17:23:37.701Z,6.70
2019-03-22T17:26:06.040Z,4.67
2019-03-22T17:28:34.388Z,7.10
2019-03-22T17:31:02.763Z,5.13
2019-03-22T17:33:30.918Z,5.27
2019-03-22T17:35:59.223Z,4.70
2019-03-22T17:38:27.632Z,5.80
2019-03-22T17:40:55.897Z,9.47
2019-03-22T17:43:24.226Z,7.03
2019-03-22T17:45:52.670Z,5.90
2019-03-22T17:48:20.998Z,6.93
2019-03-22T17:50:49.202Z,7.23
2019-03-22T17:53:18.063Z,5.87
2019-03-22T17:55:46.458Z,8.47
2019-03-22T17:58:14.819Z,10.60
2019-03-22T18:00:43.336Z,7.03
2019-03-22T18:03:11.580Z,8.20
2019-03-22T18:05:39.855Z,12.30
2019-03-22T18:08:08.051Z,8.80
2019-03-22T18:10:36.370Z,11.10
2019-03-22T18:13:05.910Z,6.30
2019-03-22T18:15:34.254Z,6.13
2019-03-22T18:18:02.518Z,9.10
2019-03-22T18:20:30.870Z,7.97
2019-03-22T18:22:59.171Z,8.83
2019-03-22T18:25:27.428Z,9.60
2019-03-22T18:27:55.812Z,9.00
2019-03-22T18:30:25.446Z,11.53
2019-03-22T18:32:54.126Z,8.17
2019-03-22T18:35:22.363Z,6.90
2019-03-22T18:37:50.843Z,4.93
2019-03-22T18:40:19.100Z,9.60
2019-03-22T18:42:47.391Z,6.07
2019-03-22T18:45:15.781Z,7.37
2019-03-22T18:47:44.126Z,9.57
2019-03-22T18:50:12.667Z,7.80
2019-03-22T18:52:41.129Z,6.90
2019-03-22T18:55:09.834Z,11.17
2019-03-22T18:57:38.368Z,15.83
2019-03-22T19:00:09.867Z,12.13
2019-03-22T19:02:38.077Z,15.97
2019-03-22T19:05:06.709Z,11.40
2019-03-22T19:07:35.088Z,13.50
2019-03-22T19:10:05.424Z,14.07
2019-03-22T19:12:35.487Z,16.03
2019-03-22T19:15:05.137Z,13.67
2019-03-22T19:17:33.412Z,15.50
2019-03-22T19:20:01.538Z,15.80
2019-03-22T19:22:29.894Z,11.03
2019-03-22T19:24:58.359Z,20.27
2019-03-22T19:27:29.374Z,16.47
2019-03-22T19:29:57.591Z,17.60
2019-03-22T19:32:25.887Z,20.03
2019-03-22T19:34:54.729Z,16.73
2019-03-22T19:37:23.019Z,18.57
2019-03-22T19:39:51.274Z,15.30
2019-03-22T19:42:19.596Z,17.47
2019-03-22T19:44:47.935Z,18.53
2019-03-22T19:47:16.430Z,18.03
2019-03-22T19:49:45.774Z,17.73
2019-03-22T19:52:14.117Z,23.33
2019-03-22T19:54:44.320Z,18.70
2019-03-22T19:57:12.705Z,19.53
2019-03-22T19:59:41.087Z,11.93
2019-03-22T20:02:10.821Z,13.83
2019-03-22T20:04:39.194Z,13.90
2019-03-22T20:07:07.573Z,14.60
2019-03-22T20:09:35.909Z,15.83
2019-03-22T20:12:04.281Z,14.97
2019-03-22T20:14:32.582Z,15.83
2019-03-22T20:17:06.376Z,17.33
2019-03-22T20:19:34.642Z,16.50
2019-03-22T20:22:03.066Z,14.83
2019-03-22T20:24:31.573Z,17.53
2019-03-22T20:27:00.073Z,11.87
2019-03-22T20:29:30.451Z,11.80
2019-03-22T20:31:59.854Z,14.23
2019-03-22T20:34:28.048Z,18.00
2019-03-22T20:36:56.322Z,15.20
2019-03-22T20:39:24.479Z,17.87
2019-03-22T20:41:52.838Z,21.13
2019-03-22T20:44:21.154Z,24.00
2019-03-22T20:46:49.548Z,29.80
2019-03-22T20:49:17.798Z,30.70
2019-03-22T20:51:46.197Z,23.07
2019-03-22T20:54:14.548Z,31.43
2019-03-22T20:56:42.928Z,38.37
2019-03-22T20:59:11.287Z,37.80
2019-03-22T21:01:39.614Z,36.40
2019-03-22T21:04:07.941Z,42.30
2019-03-22T21:06:36.404Z,40.10
2019-03-22T21:09:06.369Z,39.80
2019-03-22T21:11:34.624Z,39.37
2019-03-22T21:14:02.886Z,30.20
2019-03-22T21:16:31.292Z,48.47
2019-03-22T21:18:59.802Z,44.80
2019-03-22T21:21:35.941Z,41.63
2019-03-22T21:23:58.237Z,41.37
2019-03-22T21:26:26.629Z,46.10
2019-03-22T21:28:54.946Z,39.73
2019-03-22T21:31:23.294Z,40.47
2019-03-22T21:33:51.744Z,41.37
2019-03-22T21:36:20.026Z,44.67
2019-03-22T21:38:48.406Z,43.37
2019-03-22T21:41:16.616Z,45.07
2019-03-22T21:43:44.893Z,42.57
2019-03-22T21:46:13.276Z,45.03
2019-03-22T21:48:42.062Z,36.20
2019-03-22T21:51:10.259Z,47.97
2019-03-22T21:53:38.698Z,44.07
2019-03-22T21:56:07.201Z,39.43
2019-03-22T21:58:37.711Z,47.53
2019-03-22T22:01:05.994Z,46.90
2019-03-22T22:03:34.321Z,42.90
2019-03-22T22:06:02.777Z,42.13
2019-03-22T22:08:31.086Z,47.73
2019-03-22T22:11:00.170Z,39.40
2019-03-22T22:13:29.827Z,40.63
2019-03-22T22:15:58.093Z,39.67
2019-03-22T22:18:26.438Z,36.27
2019-03-22T22:20:54.700Z,42.90
2019-03-22T22:23:23.099Z,38.07
2019-03-22T22:25:51.573Z,36.60
2019-03-22T22:28:19.817Z,40.90
2019-03-22T22:30:48.070Z,34.53
2019-03-22T22:33:16.293Z,36.13
2019-03-22T22:35:47.043Z,38.07
2019-03-22T22:38:15.426Z,37.23
2019-03-22T22:40:43.821Z,37.13
2019-03-22T22:43:14.615Z,39.10
2019-03-22T22:45:42.983Z,35.03
2019-03-22T22:48:11.591Z,36.23
2019-03-22T22:50:42.163Z,31.67
2019-03-22T22:53:10.373Z,32.23
2019-03-22T22:55:38.796Z,33.93
2019-03-22T22:58:07.057Z,33.33
2019-03-22T23:00:35.422Z,39.30
2019-03-22T23:03:03.811Z,33.60
2019-03-22T23:05:35.060Z,30.87
2019-03-22T23:08:03.210Z,34.80
2019-03-22T23:10:31.619Z,38.40
2019-03-22T23:12:59.917Z,40.90
2019-03-22T23:15:28.641Z,40.47
2019-03-22T23:17:57.017Z,45.47
2019-03-22T23:20:25.419Z,46.53
2019-03-22T23:22:53.755Z,48.03
2019-03-22T23:25:22.017Z,48.20
2019-03-22T23:27:50.258Z,48.10
2019-03-22T23:30:18.530Z,47.37
2019-03-22T23:32:46.770Z,41.13
2019-03-22T23:35:15.237Z,41.90
2019-03-22T23:37:43.444Z,46.37
2019-03-22T23:40:12.309Z,41.93
2019-03-22T23:42:42.158Z,47.27
2019-03-22T23:45:11.081Z,44.87
2019-03-22T23:47:39.352Z,49.17
2019-03-22T23:50:08.111Z,43.13
2019-03-22T23:52:36.297Z,45.43
2019-03-22T23:55:05.549Z,47.33
2019-03-22T23:57:33.777Z,42.67
